createdAt,value
2018-07-08T00:02:16.498Z,14.23
2018-07-08T00:04:45.307Z,13.37
2018-07-08T00:07:14.447Z,13.83
2018-07-08T00:09:43.249Z,13.90
2018-07-08T00:12:12.081Z,13.87
2018-07-08T00:14:41.258Z,13.40
2018-07-08T00:17:10.083Z,13.33
2018-07-08T00:19:38.907Z,13.93
2018-07-08T00:22:08.126Z,13.53
2018-07-08T00:24:37.050Z,14.47
2018-07-08T00:27:05.943Z,14.10
2018-07-08T00:29:34.738Z,13.30
2018-07-08T00:32:03.549Z,13.30
2018-07-08T00:34:32.338Z,13.57
2018-07-08T00:37:01.195Z,12.73
2018-07-08T00:39:29.962Z,12.63
2018-07-08T00:41:58.722Z,13.30
2018-07-08T00:44:27.898Z,13.07
2018-07-08T00:46:56.709Z,13.70
2018-07-08T00:49:26.035Z,13.60
2018-07-08T00:51:54.829Z,13.47
2018-07-08T00:54:23.594Z,12.63
2018-07-08T00:56:52.377Z,13.47
2018-07-08T00:59:21.179Z,13.07
2018-07-08T01:01:49.952Z,14.33
2018-07-08T01:04:18.768Z,12.57
2018-07-08T01:06:47.616Z,13.30
2018-07-08T01:09:16.534Z,13.17
2018-07-08T01:11:45.645Z,13.60
2018-07-08T01:14:14.436Z,13.57
2018-07-08T01:16:43.292Z,13.30
2018-07-08T01:19:12.481Z,12.60
2018-07-08T01:21:41.249Z,13.73
2018-07-08T01:24:10.245Z,13.03
2018-07-08T01:26:39.475Z,13.53
2018-07-08T01:29:08.327Z,13.43
2018-07-08T01:31:37.122Z,12.90
2018-07-08T01:34:05.975Z,12.63
2018-07-08T01:36:34.994Z,12.83
2018-07-08T01:39:04.213Z,13.13
2018-07-08T01:41:32.986Z,13.37
2018-07-08T01:44:01.755Z,12.90
2018-07-08T01:46:30.501Z,13.47
2018-07-08T01:48:59.295Z,13.23
2018-07-08T01:51:28.082Z,13.83
2018-07-08T01:53:56.962Z,13.90
2018-07-08T01:56:25.755Z,13.93
2018-07-08T01:58:55.085Z,14.53
2018-07-08T02:01:23.879Z,14.97
2018-07-08T02:03:53.102Z,15.47
2018-07-08T02:06:21.938Z,14.90
2018-07-08T02:08:50.704Z,15.03
2018-07-08T02:11:20.189Z,15.70
2018-07-08T02:13:49.021Z,15.20
2018-07-08T02:16:18.192Z,15.20
2018-07-08T02:18:47.394Z,15.77
2018-07-08T02:21:16.603Z,15.70
2018-07-08T02:23:45.839Z,15.53
2018-07-08T02:26:14.618Z,15.63
2018-07-08T02:28:43.511Z,14.73
2018-07-08T02:31:12.312Z,15.50
2018-07-08T02:33:41.114Z,14.40
2018-07-08T02:36:09.906Z,15.33
2018-07-08T02:38:38.754Z,15.93
2018-07-08T02:41:07.597Z,16.13
2018-07-08T02:43:36.456Z,15.80
2018-07-08T02:46:05.356Z,16.73
2018-07-08T02:48:34.171Z,15.40
2018-07-08T02:51:02.981Z,16.27
2018-07-08T02:53:31.758Z,16.47
2018-07-08T02:56:00.520Z,15.63
2018-07-08T02:58:29.281Z,15.07
2018-07-08T03:00:58.057Z,15.67
2018-07-08T03:03:26.811Z,15.90
2018-07-08T03:05:55.577Z,14.60
2018-07-08T03:08:24.750Z,15.37
2018-07-08T03:10:53.558Z,15.13
2018-07-08T03:13:22.352Z,15.60
2018-07-08T03:15:51.122Z,15.53
2018-07-08T03:18:19.964Z,16.77
2018-07-08T03:20:48.747Z,17.70
2018-07-08T03:23:17.534Z,16.50
2018-07-08T03:25:46.327Z,17.13
2018-07-08T03:28:15.161Z,17.13
2018-07-08T03:30:43.942Z,16.17
2018-07-08T03:33:12.733Z,16.37
2018-07-08T03:35:41.504Z,15.53
2018-07-08T03:38:10.287Z,16.13
2018-07-08T03:40:39.101Z,16.23
2018-07-08T03:43:07.945Z,15.47
2018-07-08T03:45:36.731Z,16.33
2018-07-08T03:48:05.556Z,15.80
2018-07-08T03:50:34.337Z,15.60
2018-07-08T03:53:03.146Z,15.80
2018-07-08T03:55:31.904Z,15.40
2018-07-08T03:58:01.099Z,15.23
2018-07-08T04:00:30.188Z,15.53
2018-07-08T04:02:58.926Z,15.90
2018-07-08T04:05:27.705Z,15.57
2018-07-08T04:07:56.478Z,15.23
2018-07-08T04:10:25.612Z,15.83
2018-07-08T04:12:54.433Z,16.20
2018-07-08T04:15:23.242Z,16.80
2018-07-08T04:18:09.048Z,15.63
2018-07-08T04:20:39.129Z,16.13
2018-07-08T04:23:08.126Z,17.60
2018-07-08T04:25:36.878Z,17.47
2018-07-08T04:28:05.706Z,17.80
2018-07-08T04:30:34.480Z,17.97
2018-07-08T04:33:03.265Z,17.47
2018-07-08T04:35:32.030Z,17.40
2018-07-08T04:38:00.895Z,17.03
2018-07-08T04:40:29.701Z,17.30
2018-07-08T04:42:58.498Z,17.50
2018-07-08T04:45:28.834Z,17.73
2018-07-08T04:47:57.676Z,18.23
2018-07-08T04:50:26.551Z,17.43
2018-07-08T04:52:55.329Z,18.20
2018-07-08T04:55:24.143Z,17.27
2018-07-08T04:57:52.950Z,16.80
2018-07-08T05:00:21.766Z,18.07
2018-07-08T05:02:50.614Z,18.40
2018-07-08T05:05:19.393Z,18.03
2018-07-08T05:07:48.172Z,18.20
2018-07-08T05:10:16.977Z,18.77
2018-07-08T05:12:45.774Z,18.37
2018-07-08T05:15:14.542Z,19.97
2018-07-08T05:17:43.346Z,18.13
2018-07-08T05:20:12.186Z,19.57
2018-07-08T05:22:40.920Z,20.23
2018-07-08T05:25:09.657Z,19.70
2018-07-08T05:27:38.450Z,19.60
2018-07-08T05:30:07.386Z,20.27
2018-07-08T05:32:36.263Z,20.90
2018-07-08T05:35:05.199Z,21.03
2018-07-08T05:37:34.086Z,20.00
2018-07-08T05:40:02.904Z,19.10
2018-07-08T05:42:31.678Z,19.90
2018-07-08T05:45:00.487Z,19.77
2018-07-08T05:47:32.231Z,20.03
2018-07-08T05:50:01.101Z,19.20
2018-07-08T05:52:29.878Z,18.63
2018-07-08T05:54:58.653Z,19.43
2018-07-08T05:57:27.417Z,17.83
2018-07-08T05:59:56.181Z,20.47
2018-07-08T06:02:24.942Z,19.57
2018-07-08T06:04:53.707Z,19.73
2018-07-08T06:07:22.582Z,18.40
2018-07-08T06:09:51.374Z,19.23
2018-07-08T06:12:20.131Z,19.67
2018-07-08T06:14:48.930Z,18.67
2018-07-08T06:17:17.858Z,18.33
2018-07-08T06:19:46.715Z,19.10
2018-07-08T06:22:15.441Z,19.23
2018-07-08T06:24:44.240Z,19.60
2018-07-08T06:27:13.026Z,19.43
2018-07-08T06:29:41.797Z,18.00
2018-07-08T06:32:10.587Z,18.70
2018-07-08T06:34:39.357Z,18.20
2018-07-08T06:37:08.169Z,19.23
2018-07-08T06:39:36.909Z,19.30
2018-07-08T06:42:05.729Z,19.83
2018-07-08T06:44:34.585Z,18.17
2018-07-08T06:47:03.364Z,18.70
2018-07-08T06:49:32.233Z,19.07
2018-07-08T06:52:01.455Z,18.33
2018-07-08T06:54:30.385Z,18.53
2018-07-08T06:56:59.199Z,18.87
2018-07-08T06:59:28.087Z,19.17
2018-07-08T07:01:56.859Z,19.60
2018-07-08T07:04:25.640Z,18.63
2018-07-08T07:06:54.468Z,18.57
2018-07-08T07:09:23.265Z,18.80
2018-07-08T07:11:52.084Z,18.37
2018-07-08T07:14:20.954Z,18.40
2018-07-08T07:16:49.741Z,17.27
2018-07-08T07:19:18.639Z,18.53
2018-07-08T07:21:47.466Z,18.57
2018-07-08T07:24:16.454Z,18.23
2018-07-08T07:26:45.245Z,18.73
2018-07-08T07:29:14.112Z,17.67
2018-07-08T07:31:42.999Z,17.97
2018-07-08T07:34:12.824Z,17.60
2018-07-08T07:36:41.745Z,16.20
2018-07-08T07:39:10.797Z,15.47
2018-07-08T07:41:39.584Z,16.03
2018-07-08T07:44:08.387Z,14.77
2018-07-08T07:46:37.325Z,14.20
2018-07-08T07:49:06.474Z,14.87
2018-07-08T07:51:35.266Z,14.20
2018-07-08T07:54:04.027Z,14.27
2018-07-08T07:56:32.816Z,15.23
2018-07-08T07:59:01.656Z,17.27
2018-07-08T08:01:30.577Z,17.93
2018-07-08T08:03:59.444Z,18.67
2018-07-08T08:06:28.226Z,14.77
2018-07-08T08:08:57.014Z,15.90
2018-07-08T08:11:25.810Z,20.70
2018-07-08T08:14:06.361Z,24.10
2018-07-08T08:16:35.141Z,19.63
2018-07-08T08:19:04.359Z,17.30
2018-07-08T08:21:33.164Z,15.10
2018-07-08T08:24:01.936Z,16.33
2018-07-08T08:26:30.961Z,14.77
2018-07-08T08:29:00.800Z,15.40
2018-07-08T08:31:29.567Z,14.70
2018-07-08T08:35:06.982Z,14.87
2018-07-08T08:37:37.879Z,16.50
2018-07-08T08:40:07.282Z,15.60
2018-07-08T08:42:36.133Z,16.30
2018-07-08T08:45:05.551Z,14.40
2018-07-08T08:47:34.581Z,15.67
2018-07-08T08:50:03.499Z,17.97
2018-07-08T08:52:32.320Z,16.07
2018-07-08T08:55:01.464Z,17.70
2018-07-08T08:57:30.218Z,18.23
2018-07-08T08:59:59.050Z,18.43
2018-07-08T09:02:27.863Z,20.93
2018-07-08T09:04:56.675Z,20.73
2018-07-08T09:07:25.451Z,19.03
2018-07-08T09:09:54.222Z,19.80
2018-07-08T09:12:22.993Z,19.23
2018-07-08T09:14:51.760Z,16.93
2018-07-08T09:17:20.571Z,17.43
2018-07-08T09:19:49.525Z,14.23
2018-07-08T09:22:18.334Z,17.17
2018-07-08T09:24:47.807Z,18.27
2018-07-08T09:27:16.988Z,18.73
2018-07-08T09:29:45.781Z,19.13
2018-07-08T09:32:14.585Z,19.60
2018-07-08T09:34:43.343Z,19.70
2018-07-08T09:37:12.150Z,19.83
2018-07-08T09:39:40.939Z,20.33
2018-07-08T09:42:09.713Z,17.80
2018-07-08T09:44:38.858Z,18.73
2018-07-08T09:47:07.625Z,18.60
2018-07-08T09:49:36.425Z,19.87
2018-07-08T09:52:05.175Z,20.47
2018-07-08T09:54:34.007Z,22.17
2018-07-08T09:57:02.804Z,20.07
2018-07-08T09:59:31.718Z,19.33
2018-07-08T10:02:00.515Z,18.90
2018-07-08T10:04:29.464Z,15.03
2018-07-08T10:06:58.397Z,13.93
2018-07-08T10:09:27.391Z,13.17
2018-07-08T10:11:56.178Z,12.60
2018-07-08T10:14:25.394Z,11.60
2018-07-08T10:16:54.171Z,12.60
2018-07-08T10:19:23.025Z,12.03
2018-07-08T10:21:52.003Z,13.50
2018-07-08T10:24:20.811Z,12.17
2018-07-08T10:27:12.287Z,12.83
2018-07-08T10:29:41.124Z,12.33
2018-07-08T10:32:09.898Z,13.40
2018-07-08T10:34:38.730Z,11.93
2018-07-08T10:37:07.730Z,12.27
2018-07-08T10:39:36.493Z,12.53
2018-07-08T10:42:05.266Z,13.20
2018-07-08T10:44:34.053Z,12.53
2018-07-08T10:47:02.979Z,12.97
2018-07-08T10:49:31.811Z,11.90
2018-07-08T10:52:00.620Z,11.77
2018-07-08T10:54:29.409Z,11.50
2018-07-08T10:56:58.220Z,12.57
2018-07-08T10:59:27.295Z,12.40
2018-07-08T11:01:56.231Z,12.37
2018-07-08T11:04:25.065Z,13.10
2018-07-08T11:06:54.242Z,12.80
2018-07-08T11:09:23.099Z,11.50
2018-07-08T11:11:52.366Z,11.30
2018-07-08T11:14:21.125Z,9.83
2018-07-08T11:16:49.950Z,9.77
2018-07-08T11:19:18.715Z,10.33
2018-07-08T11:21:47.466Z,9.40
2018-07-08T11:24:16.270Z,9.37
2018-07-08T11:26:45.141Z,9.43
2018-07-08T11:29:13.955Z,9.40
2018-07-08T11:31:42.716Z,10.47
2018-07-08T11:34:11.519Z,10.17
2018-07-08T11:36:40.281Z,10.10
2018-07-08T11:39:09.045Z,9.03
2018-07-08T11:41:37.843Z,9.20
2018-07-08T11:44:07.779Z,9.27
2018-07-08T11:46:36.590Z,9.70
2018-07-08T11:49:05.463Z,8.60
2018-07-08T11:51:34.269Z,8.00
2018-07-08T11:54:03.065Z,8.50
2018-07-08T11:56:31.857Z,8.17
2018-07-08T11:59:00.724Z,8.70
2018-07-08T12:01:29.993Z,8.67
2018-07-08T12:03:58.828Z,9.60
2018-07-08T12:06:27.673Z,10.17
2018-07-08T12:08:57.011Z,9.90
2018-07-08T12:11:25.981Z,9.03
2018-07-08T12:13:54.970Z,8.93
2018-07-08T12:16:24.136Z,9.90
2018-07-08T12:18:52.934Z,8.00
2018-07-08T12:21:22.292Z,7.60
2018-07-08T12:23:51.838Z,7.63
2018-07-08T12:26:20.637Z,8.17
2018-07-08T12:28:49.426Z,7.67
2018-07-08T12:31:18.264Z,8.67
2018-07-08T12:33:47.027Z,5.57
2018-07-08T12:36:15.791Z,6.10
2018-07-08T12:38:44.652Z,6.43
2018-07-08T12:41:13.515Z,4.50
2018-07-08T12:43:42.401Z,4.27
2018-07-08T12:46:11.227Z,5.30
2018-07-08T12:48:40.323Z,5.30
2018-07-08T12:51:10.829Z,5.13
2018-07-08T12:53:39.653Z,5.43
2018-07-08T12:56:08.470Z,4.90
2018-07-08T12:58:37.282Z,3.40
2018-07-08T13:01:07.509Z,3.70
2018-07-08T13:03:36.360Z,4.03
2018-07-08T13:06:05.172Z,4.37
2018-07-08T13:08:34.053Z,4.33
2018-07-08T13:11:02.884Z,4.40
2018-07-08T13:13:31.774Z,4.60
2018-07-08T13:16:01.166Z,4.70
2018-07-08T13:18:29.960Z,4.90
2018-07-08T13:20:59.106Z,4.93
2018-07-08T13:23:27.979Z,5.43
2018-07-08T13:25:56.731Z,5.53
2018-07-08T13:28:25.515Z,5.37
2018-07-08T13:30:54.303Z,5.17
2018-07-08T13:33:23.434Z,5.87
2018-07-08T13:35:52.260Z,6.90
2018-07-08T13:38:21.098Z,6.63
2018-07-08T13:40:49.991Z,6.27
2018-07-08T13:43:18.908Z,8.33
2018-07-08T13:45:47.687Z,7.77
2018-07-08T13:48:16.463Z,8.33
2018-07-08T13:50:45.669Z,8.80
2018-07-08T13:53:14.442Z,8.97
2018-07-08T13:55:43.517Z,9.07
2018-07-08T13:58:12.373Z,9.03
2018-07-08T14:00:42.031Z,9.23
2018-07-08T14:03:10.864Z,9.30
2018-07-08T14:05:40.055Z,9.83
2018-07-08T14:08:09.184Z,9.33
2018-07-08T14:10:38.625Z,9.47
2018-07-08T14:13:07.727Z,9.93
2018-07-08T14:15:36.515Z,9.97
2018-07-08T14:18:05.775Z,10.00
2018-07-08T14:20:34.621Z,10.57
2018-07-08T14:23:03.659Z,11.20
2018-07-08T14:25:32.614Z,10.13
2018-07-08T14:28:01.588Z,10.60
2018-07-08T14:30:30.956Z,11.20
2018-07-08T14:32:59.820Z,11.17
2018-07-08T14:35:29.075Z,10.43
2018-07-08T14:37:57.930Z,11.23
2018-07-08T14:40:26.734Z,11.03
2018-07-08T14:42:55.550Z,11.17
2018-07-08T14:45:25.670Z,13.13
2018-07-08T14:47:54.464Z,11.90
2018-07-08T14:50:23.247Z,12.10
2018-07-08T14:52:52.246Z,12.93
2018-07-08T14:55:21.915Z,12.53
2018-07-08T14:57:50.852Z,13.20
2018-07-08T15:00:19.689Z,12.00
2018-07-08T15:02:48.451Z,11.97
2018-07-08T15:05:17.251Z,13.73
2018-07-08T15:07:46.451Z,11.37
2018-07-08T15:10:15.618Z,12.50
2018-07-08T15:12:44.476Z,12.73
2018-07-08T15:15:14.517Z,12.97
2018-07-08T15:17:43.376Z,13.80
2018-07-08T15:20:12.225Z,10.90
2018-07-08T15:22:41.417Z,11.80
2018-07-08T15:25:10.214Z,12.13
2018-07-08T15:27:39.016Z,10.30
2018-07-08T15:30:08.600Z,10.00
2018-07-08T15:32:37.398Z,7.70
2018-07-08T15:35:06.330Z,6.40
2018-07-08T15:37:35.110Z,7.73
2018-07-08T15:40:04.319Z,7.67
2018-07-08T15:42:33.522Z,7.27
2018-07-08T15:45:02.443Z,7.53
2018-07-08T15:47:31.420Z,7.60
2018-07-08T15:50:00.294Z,7.80
2018-07-08T15:52:29.208Z,6.97
2018-07-08T15:54:58.055Z,7.20
2018-07-08T15:57:26.945Z,6.13
2018-07-08T15:59:55.893Z,7.10
2018-07-08T16:02:24.694Z,7.13
2018-07-08T16:04:53.667Z,7.57
2018-07-08T16:07:22.654Z,7.83
2018-07-08T16:09:51.818Z,7.73
2018-07-08T16:12:20.787Z,7.63
2018-07-08T16:14:49.561Z,8.27
2018-07-08T16:17:18.450Z,11.97
2018-07-08T16:19:47.485Z,17.00
2018-07-08T16:22:16.431Z,11.03
2018-07-08T16:24:45.266Z,9.90
2018-07-08T16:27:14.471Z,9.63
2018-07-08T16:29:43.308Z,9.10
2018-07-08T16:32:13.047Z,8.77
2018-07-08T16:34:41.884Z,9.00
2018-07-08T16:37:10.789Z,9.13
2018-07-08T16:39:39.592Z,8.37
2018-07-08T16:42:08.480Z,8.37
2018-07-08T16:44:37.657Z,8.50
2018-07-08T16:47:06.469Z,9.13
2018-07-08T16:49:35.292Z,14.80
2018-07-08T16:52:04.736Z,17.67
2018-07-08T16:54:33.521Z,11.40
2018-07-08T16:57:02.423Z,13.13
2018-07-08T16:59:31.268Z,16.07
2018-07-08T17:02:00.476Z,14.70
2018-07-08T17:04:29.249Z,14.70
2018-07-08T17:06:58.150Z,14.63
2018-07-08T17:09:26.949Z,13.77
2018-07-08T17:11:56.720Z,12.83
2018-07-08T17:14:25.618Z,15.03
2018-07-08T17:16:54.415Z,16.07
2018-07-08T17:19:23.334Z,18.13
2018-07-08T17:21:52.223Z,31.13
2018-07-08T17:24:21.199Z,21.07
2018-07-08T17:26:50.018Z,75.67
2018-07-08T17:29:18.881Z,67.53
2018-07-08T17:31:47.772Z,34.00
2018-07-08T17:34:16.666Z,26.47
2018-07-08T17:36:46.125Z,58.87
2018-07-08T17:39:14.997Z,92.90
2018-07-08T17:41:44.262Z,20.27
2018-07-08T17:44:13.218Z,22.23
2018-07-08T17:46:42.101Z,20.67
2018-07-08T17:49:11.212Z,21.40
2018-07-08T17:51:40.063Z,21.23
2018-07-08T17:54:09.280Z,20.93
2018-07-08T17:56:38.493Z,22.83
2018-07-08T17:59:07.790Z,21.70
2018-07-08T18:01:36.637Z,22.10
2018-07-08T18:04:05.771Z,19.93
2018-07-08T18:06:34.542Z,19.00
2018-07-08T18:09:05.117Z,20.40
2018-07-08T18:11:33.993Z,17.60
2018-07-08T18:14:03.876Z,16.40
2018-07-08T18:16:33.067Z,16.83
2018-07-08T18:19:01.940Z,17.30
2018-07-08T18:21:30.792Z,18.00
2018-07-08T18:24:00.516Z,18.97
2018-07-08T18:26:29.401Z,19.27
2018-07-08T18:28:58.586Z,21.27
2018-07-08T18:31:27.437Z,21.70
2018-07-08T18:33:56.627Z,18.57
2018-07-08T18:36:25.450Z,19.10
2018-07-08T18:38:54.686Z,17.63
2018-07-08T18:41:23.966Z,18.17
2018-07-08T18:43:53.398Z,19.17
2018-07-08T18:46:22.255Z,17.73
2018-07-08T18:48:51.326Z,18.97
2018-07-08T18:51:20.192Z,17.40
2018-07-08T18:53:49.788Z,18.17
2018-07-08T18:56:18.657Z,17.63
2018-07-08T18:58:47.563Z,17.33
2018-07-08T19:01:16.797Z,17.53
2018-07-08T19:03:46.860Z,16.73
2018-07-08T19:06:15.712Z,15.20
2018-07-08T19:08:47.222Z,16.83
2018-07-08T19:11:16.235Z,15.37
2018-07-08T19:13:45.069Z,15.20
2018-07-08T19:16:14.838Z,12.53
2018-07-08T19:18:44.059Z,14.50
2018-07-08T19:21:12.871Z,14.10
2018-07-08T19:23:43.337Z,14.30
2018-07-08T19:26:12.189Z,13.73
2018-07-08T19:28:41.095Z,13.17
2018-07-08T19:31:09.970Z,13.07
2018-07-08T19:33:39.144Z,12.63
2018-07-08T19:36:07.974Z,13.87
2018-07-08T19:38:36.761Z,13.13
2018-07-08T19:41:05.905Z,13.37
2018-07-08T19:43:35.137Z,12.97
2018-07-08T19:46:04.016Z,12.63
2018-07-08T19:48:32.781Z,12.93
2018-07-08T19:51:01.631Z,12.93
2018-07-08T19:53:30.829Z,12.57
2018-07-08T19:56:00.334Z,13.10
2018-07-08T19:58:29.191Z,12.50
2018-07-08T20:00:58.665Z,12.97
2018-07-08T20:03:27.924Z,12.70
2018-07-08T20:05:56.711Z,12.17
2018-07-08T20:08:26.546Z,12.73
2018-07-08T20:10:55.780Z,13.13
2018-07-08T20:13:24.647Z,12.60
2018-07-08T20:15:54.014Z,12.17
2018-07-08T20:18:22.827Z,10.73
2018-07-08T20:20:51.619Z,13.00
2018-07-08T20:23:20.970Z,12.40
2018-07-08T20:25:49.818Z,13.73
2018-07-08T20:28:18.694Z,13.07
2018-07-08T20:30:47.716Z,13.37
2018-07-08T20:33:16.507Z,13.57
2018-07-08T20:35:45.365Z,13.20
2018-07-08T20:38:14.359Z,13.53
2018-07-08T20:40:43.349Z,13.40
2018-07-08T20:43:13.757Z,13.73
2018-07-08T20:45:42.581Z,13.83
2018-07-08T20:48:11.429Z,13.53
2018-07-08T20:50:40.398Z,13.47
2018-07-08T20:53:09.521Z,14.87
2018-07-08T20:55:38.335Z,14.13
2018-07-08T20:58:07.140Z,15.20
2018-07-08T21:00:35.985Z,14.93
2018-07-08T21:03:05.301Z,14.83
2018-07-08T21:05:34.686Z,15.20
2018-07-08T21:08:03.503Z,14.23
2018-07-08T21:10:32.314Z,15.80
2018-07-08T21:13:01.152Z,15.70
2018-07-08T21:15:30.562Z,15.73
2018-07-08T21:17:59.359Z,15.57
2018-07-08T21:20:28.138Z,15.83
2018-07-08T21:22:57.043Z,15.50
2018-07-08T21:25:26.514Z,16.50
2018-07-08T21:27:56.078Z,16.20
2018-07-08T21:30:24.928Z,15.83
2018-07-08T21:32:53.737Z,15.13
2018-07-08T21:35:22.584Z,14.40
2018-07-08T21:37:51.391Z,14.83
2018-07-08T21:40:20.323Z,15.33
2018-07-08T21:42:49.184Z,13.77
2018-07-08T21:45:17.959Z,13.97
2018-07-08T21:47:46.848Z,12.00
2018-07-08T21:50:15.651Z,12.00
2018-07-08T21:52:44.681Z,11.90
2018-07-08T21:55:13.480Z,11.90
2018-07-08T21:57:42.809Z,11.50
2018-07-08T22:00:11.918Z,10.67
2018-07-08T22:02:40.758Z,9.97
2018-07-08T22:05:09.806Z,9.30
2018-07-08T22:07:43.743Z,9.63
2018-07-08T22:10:12.537Z,9.13
2018-07-08T22:12:41.358Z,9.93
2018-07-08T22:15:10.213Z,9.77
2018-07-08T22:17:39.073Z,9.30
2018-07-08T22:20:07.888Z,9.17
2018-07-08T22:22:36.688Z,9.03
2018-07-08T22:25:05.549Z,8.73
2018-07-08T22:27:34.379Z,8.40
2018-07-08T22:30:04.580Z,8.30
2018-07-08T22:32:34.008Z,8.57
2018-07-08T22:35:02.808Z,8.30
2018-07-08T22:37:31.587Z,8.33
2018-07-08T22:40:00.823Z,8.43
2018-07-08T22:42:29.689Z,8.40
2018-07-08T22:44:58.552Z,8.60
2018-07-08T22:47:27.772Z,9.00
2018-07-08T22:49:56.570Z,8.20
2018-07-08T22:52:25.805Z,8.30
2018-07-08T22:54:55.153Z,8.03
2018-07-08T22:57:23.919Z,7.53
2018-07-08T23:00:05.037Z,8.20
2018-07-08T23:02:45.665Z,8.17
2018-07-08T23:05:15.419Z,8.70
2018-07-08T23:07:44.220Z,8.37
2018-07-08T23:10:13.068Z,8.37
2018-07-08T23:12:41.826Z,8.63
2018-07-08T23:15:10.617Z,8.73
2018-07-08T23:17:43.541Z,8.87
2018-07-08T23:20:12.304Z,9.40
2018-07-08T23:22:52.255Z,9.80
2018-07-08T23:25:21.078Z,9.30
2018-07-08T23:27:49.891Z,9.20
2018-07-08T23:30:18.688Z,9.80
2018-07-08T23:32:48.034Z,9.63
2018-07-08T23:35:16.994Z,9.30
2018-07-08T23:37:45.842Z,9.40
2018-07-08T23:40:14.646Z,9.73
2018-07-08T23:42:43.486Z,11.10
2018-07-08T23:45:17.626Z,10.40
2018-07-08T23:47:46.411Z,10.43
2018-07-08T23:50:15.168Z,10.63
2018-07-08T23:52:44.021Z,10.50
2018-07-08T23:55:12.812Z,10.93
2018-07-08T23:57:41.650Z,10.10
